Time;durP1;ratioP1;P1;durP2;ratioP2;P2;SDS_P1;SDS_P2;PMS_P1;PMS_P2;Temp;Humidity;BMP_temperature;BMP_pressure;BME280_temperature;BME280_humidity;BME280_pressure;Samples;Min_cycle;Max_cycle;Signal;HPM_P1;HPM_P2
2022/08/22 12:27:29;;;;;;;;;1.00;1.00;;;;;28.79;39.56;100955.72;5066577;28;45574;-68
2022/08/22 12:30:16;;;;;;;;;3.50;2.75;;;;;29.36;39.81;100956.06;5065512;27;45752;-67
2022/08/22 12:33:13;;;;;;;;;2.00;2.00;;;;;30.01;37.73;100962.03;5055050;28;45505;-70
2022/08/22 12:36:01;;;;;;;;;2.00;2.00;;;;;30.72;36.94;100954.75;5055607;28;45382;-67
2022/08/22 12:38:57;;;;;;;;;2.40;2.40;;;;;31.09;35.72;100942.84;5060959;27;46167;-67
2022/08/22 12:41:59;;;;;;;;;2.40;2.40;;;;;30.88;36.09;100945.44;5066437;28;45460;-68
2022/08/22 12:44:51;;;;;;;;;2.20;1.00;;;;;31.16;35.74;100944.94;5052753;28;45418;-67
2022/08/22 12:47:35;;;;;;;;;1.00;1.00;;;;;30.80;35.68;100940.59;5052357;28;45524;-67
2022/08/22 12:50:23;;;;;;;;;1.80;1.80;;;;;30.21;36.32;100947.88;5063684;28;45565;-67
2022/08/22 12:52:58;;;;;;;;;3.20;1.00;;;;;30.02;37.24;100943.03;5072391;28;45583;-67
2022/08/22 12:55:38;;;;;;;;;1.20;1.20;;;;;30.08;36.85;100936.28;5068002;28;45955;-73
2022/08/22 12:58:44;;;;;;;;;2.00;2.00;;;;;29.72;37.31;100929.16;5067601;28;45439;-69
2022/08/22 13:01:11;;;;;;;;;1.00;1.00;;;;;29.68;37.71;100935.78;5068621;27;46602;-67
2022/08/22 13:03:40;;;;;;;;;3.00;1.00;;;;;29.34;37.53;100924.78;5066933;28;45548;-66
2022/08/22 13:06:55;;;;;;;;;1.00;1.00;;;;;29.39;37.90;100920.75;5061861;28;45504;-66
2022/08/22 13:09:30;;;;;;;;;2.00;2.00;;;;;29.66;37.69;100926.88;5064710;28;45555;-66
2022/08/22 13:12:17;;;;;;;;;2.00;2.00;;;;;29.66;37.81;100925.06;5064531;28;46246;-72
2022/08/22 13:14:46;;;;;;;;;2.20;2.00;;;;;29.34;38.16;100905.88;5060155;27;45608;-70
2022/08/22 13:17:17;;;;;;;;;3.20;2.00;;;;;29.74;37.90;100925.38;5064298;28;45512;-72
2022/08/22 13:20:01;;;;;;;;;2.50;0.75;;;;;29.66;37.14;100911.56;5061515;28;45505;-68
2022/08/22 13:22:31;;;;;;;;;1.00;1.00;;;;;29.56;38.17;100930.28;5059444;28;45524;-67
2022/08/22 13:25:13;;;;;;;;;3.00;1.80;;;;;29.23;38.66;100924.69;5052146;28;46693;-68
2022/08/22 13:27:46;;;;;;;;;1.40;1.40;;;;;29.20;38.89;100924.94;5071009;27;45480;-76
2022/08/22 13:30:33;;;;;;;;;2.00;2.00;;;;;29.13;38.90;100925.38;5069469;27;45812;-77
2022/08/22 13:33:27;;;;;;;;;2.00;2.00;;;;;29.02;39.63;100917.19;5080420;27;46035;-78
2022/08/22 13:35:57;;;;;;;;;2.60;1.20;;;;;28.92;39.18;100900.78;5086553;27;45928;-71
2022/08/22 13:38:37;;;;;;;;;1.00;1.00;;;;;29.08;39.21;100916.75;5075774;27;45965;-67
2022/08/22 13:41:07;;;;;;;;;1.50;1.50;;;;;29.09;39.28;100913.09;5073308;27;45542;-67
2022/08/22 13:44:05;;;;;;;;;2.00;1.00;;;;;29.10;38.96;100887.84;5054663;28;46847;-73
2022/08/22 13:46:32;;;;;;;;;0.20;0.20;;;;;29.17;38.86;100908.00;5073573;28;45534;-65
2022/08/22 13:49:01;;;;;;;;;0.40;0.40;;;;;29.23;38.75;100905.81;5072210;28;45835;-66
2022/08/22 13:51:39;;;;;;;;;1.00;1.00;;;;;29.19;38.92;100894.41;5071104;28;45450;-67
2022/08/22 13:54:14;;;;;;;;;1.00;0.00;;;;;29.27;38.82;100915.41;5043223;28;46181;-67
2022/08/22 13:56:51;;;;;;;;;1.00;1.00;;;;;29.12;39.02;100906.63;5066255;28;45482;-69
2022/08/22 13:59:46;;;;;;;;;0.40;0.40;;;;;29.17;39.30;100918.78;5067830;28;46504;-66
2022/08/22 14:02:14;;;;;;;;;0.00;0.00;;;;;29.04;39.64;100914.34;5068957;28;45628;-67
2022/08/22 14:04:43;;;;;;;;;1.20;1.00;;;;;28.76;39.94;100921.75;5067912;28;45479;-65
2022/08/22 14:07:09;;;;;;;;;1.40;1.40;;;;;28.54;40.46;100919.72;5066872;28;45569;-66
2022/08/22 14:09:34;;;;;;;;;1.00;1.00;;;;;28.41;40.55;100932.31;5069830;28;45492;-66
2022/08/22 14:12:26;;;;;;;;;0.25;0.25;;;;;28.43;40.14;100908.81;5069357;28;45410;-67
2022/08/22 14:15:03;;;;;;;;;1.25;1.25;;;;;28.54;40.36;100927.78;5047921;28;47297;-66
2022/08/22 14:17:38;;;;;;;;;0.00;0.00;;;;;28.49;40.52;100921.88;5068330;28;45605;-71
2022/08/22 14:20:21;;;;;;;;;0.80;0.80;;;;;28.36;40.54;100916.47;5069110;28;45613;-68
2022/08/22 14:22:57;;;;;;;;;0.25;0.25;;;;;28.23;40.29;100897.59;5062858;28;45437;-66
2022/08/22 14:25:25;;;;;;;;;0.60;0.60;;;;;28.77;40.10;100911.84;5062518;28;46244;-68
2022/08/22 14:27:57;;;;;;;;;0.00;0.00;;;;;29.04;39.30;100866.69;5072277;28;45679;-67
2022/08/22 14:30:31;;;;;;;;;0.00;0.00;;;;;29.20;38.94;100897.97;5071627;28;45553;-67
2022/08/22 14:33:20;;;;;;;;;0.00;0.00;;;;;28.72;39.60;100891.47;5071950;28;45622;-67
2022/08/22 14:35:52;;;;;;;;;1.00;1.00;;;;;28.57;40.17;100892.56;5069008;28;45540;-68
2022/08/22 14:38:26;;;;;;;;;0.20;0.20;;;;;28.66;40.21;100901.81;5071721;28;45473;-67
2022/08/22 14:41:22;;;;;;;;;1.00;0.00;;;;;28.54;40.00;100895.47;5071592;28;45521;-67
2022/08/22 14:44:04;;;;;;;;;0.00;0.00;;;;;28.27;40.28;100898.25;5025661;28;45660;-67
2022/08/22 14:46:42;;;;;;;;;0.00;0.00;;;;;28.07;40.37;100857.41;5073427;28;46107;-67
2022/08/22 14:49:13;;;;;;;;;0.00;0.00;;;;;28.27;40.45;100895.56;5058866;28;45859;-67
2022/08/22 14:51:51;;;;;;;;;0.00;0.00;;;;;28.15;40.39;100878.41;5066721;28;45755;-67
2022/08/22 14:54:22;;;;;;;;;0.20;0.20;;;;;28.40;40.22;100891.00;5067727;28;45810;-67
2022/08/22 14:56:52;;;;;;;;;2.00;0.00;;;;;28.48;40.20;100871.66;5060727;28;46700;-68
2022/08/22 14:59:39;;;;;;;;;0.00;0.00;;;;;28.64;40.32;100890.28;5070369;28;45566;-67
2022/08/22 15:02:23;;;;;;;;;0.00;0.00;;;;;28.70;40.54;100893.41;5047310;28;45452;-67
2022/08/22 15:04:51;;;;;;;;;0.00;0.00;;;;;28.63;40.54;100891.25;5062836;28;45557;-68
2022/08/22 15:07:28;;;;;;;;;0.60;0.60;;;;;28.32;41.00;100880.78;5067983;28;45499;-67
2022/08/22 15:10:08;;;;;;;;;0.00;0.00;;;;;28.16;41.30;100880.13;5061855;28;45567;-67
2022/08/22 15:12:38;;;;;;;;;0.20;0.00;;;;;28.03;41.77;100888.22;5051568;28;45279;-67
2022/08/22 15:15:25;;;;;;;;;0.00;0.00;;;;;27.89;42.12;100886.47;5066680;28;45530;-67
2022/08/22 15:17:54;;;;;;;;;0.00;0.00;;;;;27.82;42.71;100885.13;5062621;28;45997;-76
2022/08/22 15:20:36;;;;;;;;;0.00;0.00;;;;;27.91;42.07;100887.22;5062024;28;45335;-66
2022/08/22 15:23:06;;;;;;;;;0.20;0.00;;;;;27.96;41.83;100886.91;5055314;28;46482;-69
2022/08/22 15:25:39;;;;;;;;;0.00;0.00;;;;;27.91;41.88;100879.16;5059046;28;45481;-68
2022/08/22 15:28:16;;;;;;;;;0.00;0.00;;;;;27.67;41.81;100876.25;5072991;27;45620;-70
2022/08/22 15:30:57;;;;;;;;;0.00;0.00;;;;;27.73;41.74;100888.44;5056152;27;45429;-68
2022/08/22 15:33:47;;;;;;;;;0.00;0.00;;;;;27.55;42.34;100887.84;5075065;28;45645;-69
2022/08/22 15:36:25;;;;;;;;;0.00;0.00;;;;;27.39;42.37;100884.47;5066580;27;45401;-69
2022/08/22 15:39:15;;;;;;;;;0.00;0.00;;;;;27.19;43.02;100883.94;5074196;28;46122;-70
2022/08/22 15:41:46;;;;;;;;;0.00;0.00;;;;;27.04;43.09;100839.19;5073864;28;45633;-75
2022/08/22 15:44:21;;;;;;;;;0.00;0.00;;;;;27.24;43.39;100884.50;5075340;28;45374;-69
2022/08/22 15:47:21;;;;;;;;;0.00;0.00;;;;;27.19;43.13;100857.06;5074533;27;45389;-69
2022/08/22 15:49:53;;;;;;;;;0.25;0.25;;;;;27.38;43.01;100867.44;5055011;27;46668;-66
2022/08/22 15:52:34;;;;;;;;;0.00;0.00;;;;;27.47;42.65;100880.28;5077968;28;45385;-69
2022/08/22 15:55:17;;;;;;;;;0.00;0.00;;;;;27.48;42.88;100873.94;5078889;28;46108;-70
2022/08/22 15:58:19;;;;;;;;;0.00;0.00;;;;;27.46;42.82;100872.31;5075743;27;45688;-66
2022/08/22 16:01:05;;;;;;;;;0.00;0.00;;;;;27.30;43.37;100867.09;5055895;28;45842;-65
2022/08/22 16:03:35;;;;;;;;;0.00;0.00;;;;;27.29;43.33;100876.13;5074271;27;45596;-67
2022/08/22 16:06:08;;;;;;;;;1.00;0.00;;;;;27.37;42.80;100875.63;5073715;28;45839;-67
2022/08/22 16:09:06;;;;;;;;;0.00;0.00;;;;;27.41;43.11;100871.78;5074406;27;45575;-73
2022/08/22 16:11:36;;;;;;;;;0.00;0.00;;;;;27.49;43.02;100874.81;5032927;28;46258;-71
2022/08/22 16:14:40;;;;;;;;;0.00;0.00;;;;;27.47;42.89;100864.13;5073560;28;45512;-66
2022/08/22 16:17:29;;;;;;;;;0.00;0.00;;;;;27.51;43.25;100877.41;5073228;27;45536;-68
2022/08/22 16:20:07;;;;;;;;;0.00;0.00;;;;;27.41;43.49;100864.56;5076012;27;45375;-69
2022/08/22 16:22:57;;;;;;;;;0.00;0.00;;;;;27.23;43.88;100873.84;5077279;28;45330;-67
2022/08/22 16:25:45;;;;;;;;;0.00;0.00;;;;;27.27;43.61;100875.38;5063165;28;45383;-66
2022/08/22 16:28:28;;;;;;;;;0.00;0.00;;;;;27.36;43.69;100872.09;5072384;27;45527;-66
2022/08/22 16:31:12;;;;;;;;;0.00;0.00;;;;;27.35;43.59;100851.50;5055981;28;45457;-69
2022/08/22 16:33:41;;;;;;;;;0.00;0.00;;;;;27.40;43.72;100862.81;5054853;28;46923;-67
2022/08/22 16:36:19;;;;;;;;;0.00;0.00;;;;;27.51;44.05;100874.72;5054968;28;45468;-67
2022/08/22 16:38:56;;;;;;;;;0.00;0.00;;;;;27.49;43.77;100867.59;5073101;27;45608;-75
2022/08/22 16:41:33;;;;;;;;;0.00;0.00;;;;;27.45;43.53;100860.72;5052777;28;45488;-65
2022/08/22 16:44:20;;;;;;;;;0.00;0.00;;;;;27.52;43.16;100869.22;5072168;27;45489;-67
2022/08/22 16:46:50;;;;;;;;;0.00;0.00;;;;;27.42;42.87;100862.72;5059343;28;45493;-69
2022/08/22 16:49:33;;;;;;;;;0.00;0.00;;;;;27.39;43.31;100854.88;5059451;28;45536;-66
2022/08/22 16:52:21;;;;;;;;;0.00;0.00;;;;;27.55;42.91;100865.44;5077476;28;45359;-65
2022/08/22 16:55:26;;;;;;;;;2.00;1.00;;;;;27.45;42.97;100863.41;5073598;27;46173;-67
2022/08/22 16:58:22;;;;;;;;;0.40;0.40;;;;;27.45;43.29;100863.41;5050100;28;45523;-66
2022/08/22 17:01:11;;;;;;;;;0.00;0.00;;;;;27.39;43.01;100846.81;5065565;28;45496;-67
2022/08/22 17:03:57;;;;;;;;;1.00;1.00;;;;;27.47;42.87;100853.38;5071790;27;46128;-67
2022/08/22 17:07:08;;;;;;;;;0.75;0.75;;;;;27.36;43.11;100860.44;5058905;28;45536;-67
2022/08/22 17:09:39;;;;;;;;;0.00;0.00;;;;;27.13;43.83;100849.34;5051002;28;45468;-69
2022/08/22 17:12:46;;;;;;;;;0.20;0.00;;;;;26.61;44.49;100807.91;5045256;28;45393;-65
2022/08/22 17:15:24;;;;;;;;;0.00;0.00;;;;;26.95;44.82;100847.84;5048284;27;45592;-66
2022/08/22 17:18:02;;;;;;;;;0.00;0.00;;;;;27.01;44.48;100855.53;5065820;28;45418;-68
2022/08/22 17:21:09;;;;;;;;;0.00;0.00;;;;;26.97;44.37;100848.63;5058056;28;45962;-67
2022/08/22 17:23:49;;;;;;;;;0.00;0.00;;;;;27.07;44.34;100855.13;5056699;28;45523;-67
2022/08/22 17:26:20;;;;;;;;;0.00;0.00;;;;;27.08;44.87;100851.50;5064031;28;45472;-68
2022/08/22 17:29:13;;;;;;;;;0.00;0.00;;;;;26.77;44.48;100813.16;5078606;27;45532;-66
2022/08/22 17:31:50;;;;;;;;;0.00;0.00;;;;;27.04;44.56;100849.94;5044616;28;45307;-69
2022/08/22 17:34:48;;;;;;;;;0.50;0.50;;;;;27.10;43.66;100862.13;5053667;28;45441;-66
2022/08/22 17:37:48;;;;;;;;;0.00;0.00;;;;;27.10;43.85;100859.44;5077266;27;45505;-67
2022/08/22 17:40:36;;;;;;;;;1.00;1.00;;;;;27.05;43.23;100857.94;5070733;27;45638;-67
2022/08/22 17:43:20;;;;;;;;;0.00;0.00;;;;;27.02;43.32;100860.78;5051362;28;45590;-66
2022/08/22 17:46:05;;;;;;;;;0.00;0.00;;;;;27.01;43.65;100860.91;5061442;28;45445;-76
2022/08/22 17:48:56;;;;;;;;;0.50;0.50;;;;;26.99;43.69;100860.16;5058227;28;45628;-67
2022/08/22 17:51:46;;;;;;;;;0.00;0.00;;;;;26.86;44.07;100860.06;5066720;27;46365;-70
2022/08/22 17:54:24;;;;;;;;;0.00;0.00;;;;;26.82;43.94;100864.78;5075715;27;45541;-66
2022/08/22 17:57:13;;;;;;;;;2.75;2.00;;;;;26.76;43.57;100857.09;5056256;28;45509;-68
2022/08/22 17:59:53;;;;;;;;;2.00;1.00;;;;;26.72;44.17;100863.66;5071066;27;45391;-68
2022/08/22 18:02:30;;;;;;;;;0.00;0.00;;;;;26.53;44.07;100846.91;5066367;28;46358;-66
2022/08/22 18:05:13;;;;;;;;;0.00;0.00;;;;;26.55;44.62;100870.09;5061851;28;45491;-66
2022/08/22 18:08:00;;;;;;;;;0.00;0.00;;;;;26.43;44.44;100865.44;5064379;27;45893;-65
2022/08/22 18:10:46;;;;;;;;;0.00;0.00;;;;;26.36;44.67;100859.59;5038091;28;45418;-67
2022/08/22 18:13:36;;;;;;;;;0.00;0.00;;;;;26.34;45.07;100871.38;5041181;28;45584;-66
2022/08/22 18:16:26;;;;;;;;;1.00;1.00;;;;;26.31;44.99;100866.19;5071632;27;45541;-66
2022/08/22 18:19:07;;;;;;;;;1.25;1.00;;;;;26.05;45.17;100825.72;5067258;28;45406;-66
2022/08/22 18:21:40;;;;;;;;;1.00;1.00;;;;;26.17;45.21;100857.19;5062140;27;45419;-67
2022/08/22 18:24:09;;;;;;;;;1.00;1.00;;;;;26.23;45.73;100880.97;5068840;28;45481;-67
2022/08/22 18:26:40;;;;;;;;;0.75;0.75;;;;;26.17;45.84;100875.09;5076455;27;45421;-65
2022/08/22 18:29:09;;;;;;;;;0.00;0.00;;;;;26.11;45.72;100884.41;5068837;27;45362;-65
2022/08/22 18:32:05;;;;;;;;;0.00;0.00;;;;;26.02;45.95;100883.13;5054217;28;45414;-65
2022/08/22 18:34:55;;;;;;;;;0.25;0.25;;;;;25.99;45.96;100888.69;5066658;28;46174;-65
2022/08/22 18:37:47;;;;;;;;;1.00;1.00;;;;;25.96;46.51;100886.19;5055134;28;45497;-67
2022/08/22 18:40:24;;;;;;;;;10.50;9.25;;;;;25.85;46.41;100855.56;5071726;27;45272;-69
2022/08/22 18:43:22;;;;;;;;;24.67;23.00;;;;;25.96;46.20;100888.00;5078998;27;45257;-69
2022/08/22 18:45:47;;;;;;;;;35.00;30.67;;;;;25.95;46.51;100894.34;5075405;27;45434;-69
2022/08/22 18:48:35;;;;;;;;;26.00;23.00;;;;;25.78;46.61;100866.66;5067271;28;45340;-69
2022/08/22 18:51:19;;;;;;;;;8.00;7.00;;;;;25.87;47.16;100896.63;5048579;28;45464;-67
2022/08/22 18:54:04;;;;;;;;;3.00;3.00;;;;;25.84;47.18;100891.38;5061746;28;45386;-69
2022/08/22 18:56:54;;;;;;;;;3.00;3.00;;;;;25.83;47.38;100900.41;5071892;28;45493;-68
2022/08/22 18:59:28;;;;;;;;;1.50;1.00;;;;;25.81;47.83;100900.47;5066569;28;45291;-68
2022/08/22 19:02:16;;;;;;;;;1.00;1.00;;;;;25.74;47.43;100910.69;5060136;28;45406;-69
2022/08/22 19:05:12;;;;;;;;;;;;;;;;;;;;;
2022/08/22 19:07:55;;;;;;;;;1.00;1.00;;;;;25.64;48.35;100909.53;5068473;27;76440;-66
2022/08/22 19:10:43;;;;;;;;;1.00;1.00;;;;;25.40;47.99;100887.69;5056796;28;45431;-68
2022/08/22 19:13:50;;;;;;;;;1.25;1.25;;;;;25.56;48.71;100917.16;5057972;28;45387;-66
2022/08/22 19:16:44;;;;;;;;;3.75;3.75;;;;;25.58;48.38;100917.94;5055029;28;45527;-67
2022/08/22 19:19:21;;;;;;;;;5.00;4.00;;;;;25.53;48.77;100926.25;5056433;28;46082;-66
2022/08/22 19:22:39;;;;;;;;;9.00;6.00;;;;;25.51;48.75;100925.47;5055705;28;45970;-71
2022/08/22 19:25:26;;;;;;;;;5.00;3.25;;;;;25.54;48.92;100935.16;5034864;28;45343;-69
2022/08/22 19:28:10;;;;;;;;;3.00;3.00;;;;;25.54;48.77;100937.84;5055720;28;45343;-80
2022/08/22 19:30:46;;;;;;;;;2.50;1.75;;;;;25.44;48.58;100923.22;5054792;28;46226;-68
2022/08/22 19:33:46;;;;;;;;;1.00;1.00;;;;;25.34;48.85;100918.41;5055732;28;45530;-66
2022/08/22 19:36:36;;;;;;;;;1.00;1.00;;;;;25.38;49.20;100940.53;5055766;28;45469;-67
2022/08/22 19:39:13;;;;;;;;;2.25;0.75;;;;;25.20;48.74;100915.63;5054872;28;45648;-72
2022/08/22 19:41:51;;;;;;;;;1.75;1.75;;;;;25.18;49.35;100915.72;5055149;28;46399;-67
2022/08/22 19:44:17;;;;;;;;;2.00;2.00;;;;;25.34;49.03;100947.00;5057455;28;45593;-67
2022/08/22 19:46:46;;;;;;;;;1.00;1.00;;;;;25.27;49.21;100946.50;5045832;28;45490;-70
2022/08/22 19:49:36;;;;;;;;;1.00;1.00;;;;;25.11;49.41;100925.00;5041352;28;45948;-68
2022/08/22 19:52:20;;;;;;;;;0.25;0.25;;;;;25.23;49.77;100947.63;5052446;28;46115;-66
2022/08/22 19:55:20;;;;;;;;;0.75;0.75;;;;;25.18;49.39;100953.25;5054792;28;45532;-67
2022/08/22 19:57:55;;;;;;;;;1.00;1.00;;;;;25.05;49.74;100936.06;5060358;28;45624;-66
2022/08/22 20:00:39;;;;;;;;;4.00;1.00;;;;;25.08;50.76;100945.75;5067584;28;45481;-69
2022/08/22 20:03:08;;;;;;;;;2.00;2.00;;;;;25.00;50.04;100951.53;5062485;28;46706;-67
2022/08/22 20:05:46;;;;;;;;;2.75;2.00;;;;;25.00;50.56;100948.84;5063872;28;46038;-70
2022/08/22 20:08:40;;;;;;;;;2.50;2.50;;;;;25.03;50.02;100948.69;5058056;28;45818;-66
2022/08/22 20:12:10;;;;;;;;;3.25;1.25;;;;;25.00;50.33;100945.31;5052313;28;45564;-68
2022/08/22 20:14:39;;;;;;;;;1.00;1.00;;;;;25.05;50.42;100949.47;4982890;28;46511;-70
2022/08/22 20:17:22;;;;;;;;;21.33;20.67;;;;;25.06;50.33;100951.22;4979936;28;45999;-68
2022/08/22 20:20:00;;;;;;;;;19.33;17.33;;;;;25.11;50.07;100948.28;5013544;28;45539;-70
2022/08/22 20:22:37;;;;;;;;;20.00;17.00;;;;;24.96;50.50;100928.53;5049555;28;45931;-69
2022/08/22 20:25:14;;;;;;;;;5.67;5.33;;;;;24.83;50.29;100914.09;5046373;28;46521;-69
2022/08/22 20:27:45;;;;;;;;;5.00;4.00;;;;;24.95;50.61;100926.81;5046001;28;45405;-69
2022/08/22 20:30:28;;;;;;;;;3.50;3.50;;;;;25.06;50.10;100959.25;5060143;28;46037;-68
2022/08/22 20:33:04;;;;;;;;;2.00;2.00;;;;;25.15;50.11;100963.22;5067479;28;45517;-70
2022/08/22 20:35:44;;;;;;;;;5.50;1.25;;;;;25.18;49.87;100955.91;5060498;28;46423;-71
2022/08/22 20:38:14;;;;;;;;;1.00;1.00;;;;;25.15;50.53;100956.06;5064842;28;45792;-69
2022/08/22 20:40:52;;;;;;;;;1.00;1.00;;;;;25.12;50.54;100958.91;5059736;28;45585;-72
2022/08/22 20:43:51;;;;;;;;;2.00;2.00;;;;;25.06;50.79;100947.66;5064922;28;45552;-68
2022/08/22 20:46:45;;;;;;;;;1.00;1.00;;;;;25.11;50.43;100956.31;5060725;28;46113;-67
2022/08/22 20:49:36;;;;;;;;;1.25;1.25;;;;;25.11;50.62;100948.28;5059365;28;45484;-67
2022/08/22 20:52:07;;;;;;;;;3.00;1.75;;;;;25.11;50.89;100954.50;5054736;28;45956;-68
2022/08/22 20:54:37;;;;;;;;;4.50;2.00;;;;;25.18;50.18;100963.97;5051558;28;45423;-65
2022/08/22 20:57:15;;;;;;;;;1.25;1.25;;;;;25.20;50.42;100958.53;5051666;28;45998;-68
2022/08/22 20:59:51;;;;;;;;;1.50;1.00;;;;;25.24;50.22;100954.69;5052160;28;45591;-67
2022/08/22 21:02:28;;;;;;;;;2.00;2.00;;;;;25.17;50.79;100950.59;5063724;28;45501;-67
2022/08/22 21:05:02;;;;;;;;;2.75;1.50;;;;;25.13;50.33;100943.69;5053091;28;45489;-68
2022/08/22 21:07:32;;;;;;;;;1.00;1.00;;;;;24.92;50.34;100909.09;5053101;28;46802;-68
2022/08/22 21:13:14;;;;;;;;;1.50;1.00;;;;;25.09;50.74;100942.13;5070210;27;45493;-68
2022/08/22 21:15:44;;;;;;;;;3.50;2.00;;;;;24.93;50.55;100916.16;5054775;28;45408;-71
2022/08/22 21:18:19;;;;;;;;;2.00;2.00;;;;;25.06;50.14;100937.81;5055957;28;45815;-75
2022/08/22 21:20:45;;;;;;;;;1.00;1.00;;;;;25.13;50.40;100935.66;5059425;28;45406;-68
2022/08/22 21:23:14;;;;;;;;;2.00;2.00;;;;;25.14;50.06;100937.38;5038388;28;45523;-69
2022/08/22 21:26:06;;;;;;;;;2.75;2.00;;;;;25.12;50.46;100937.44;5039132;28;45536;-69
2022/08/22 21:28:57;;;;;;;;;1.25;1.25;;;;;25.10;50.85;100942.03;5057061;28;46572;-70
2022/08/22 21:31:28;;;;;;;;;1.00;1.00;;;;;25.04;50.85;100947.75;5047972;28;45497;-68
2022/08/22 21:33:57;;;;;;;;;1.00;1.00;;;;;24.98;51.13;100948.94;5057176;28;45411;-69
2022/08/22 21:36:27;;;;;;;;;2.75;2.25;;;;;24.93;50.54;100934.06;5057459;28;45855;-69
2022/08/22 21:39:16;;;;;;;;;2.00;2.00;;;;;24.79;50.83;100916.06;5063969;27;46201;-68
2022/08/22 21:42:18;;;;;;;;;1.00;1.00;;;;;24.92;51.00;100949.28;5058009;28;45446;-69
2022/08/22 21:44:55;;;;;;;;;0.75;0.75;;;;;24.83;50.72;100927.50;5057882;27;45430;-72
2022/08/22 21:47:51;;;;;;;;;1.25;1.00;;;;;24.81;51.15;100938.28;5057210;28;45402;-69
2022/08/22 21:50:17;;;;;;;;;2.00;2.00;;;;;24.87;51.39;100956.72;5057455;28;45406;-69
2022/08/22 21:53:04;;;;;;;;;2.75;1.00;;;;;24.83;51.88;100960.50;5058240;28;45398;-68
2022/08/22 21:55:35;;;;;;;;;1.50;1.50;;;;;24.72;51.71;100965.56;5058351;28;45328;-72
2022/08/22 21:58:06;;;;;;;;;1.00;1.00;;;;;24.69;52.00;100963.06;5057373;28;45465;-71
2022/08/22 22:00:55;;;;;;;;;1.00;1.00;;;;;24.74;51.72;100958.31;5057207;28;46257;-72
2022/08/22 22:03:23;;;;;;;;;1.00;1.00;;;;;24.71;51.39;100975.41;5056685;28;45824;-72
2022/08/22 22:05:58;;;;;;;;;1.00;1.00;;;;;24.71;51.38;100959.34;5057100;28;45414;-69
2022/08/22 22:08:25;;;;;;;;;1.00;1.00;;;;;24.67;51.69;100952.41;5042685;28;45770;-71
2022/08/22 22:10:56;;;;;;;;;1.50;1.50;;;;;24.69;51.35;100955.88;5055997;28;45430;-69
2022/08/22 22:13:22;;;;;;;;;1.00;1.00;;;;;24.78;51.36;100969.75;5056813;28;45466;-70
2022/08/22 22:15:50;;;;;;;;;1.00;1.00;;;;;24.68;51.17;100946.13;5059311;28;45336;-75
2022/08/22 22:18:21;;;;;;;;;1.00;1.00;;;;;24.79;51.48;100964.28;5058586;28;45496;-70
2022/08/22 22:20:48;;;;;;;;;1.00;1.00;;;;;24.72;51.35;100960.19;5055744;28;45704;-68
2022/08/22 22:23:15;;;;;;;;;2.00;0.50;;;;;24.75;50.97;100962.72;5037389;28;45604;-73
2022/08/22 22:25:43;;;;;;;;;4.25;1.00;;;;;24.80;51.02;100970.53;5057313;28;45525;-74
2022/08/22 22:28:17;;;;;;;;;2.00;1.00;;;;;24.78;51.41;100961.69;5076498;28;46023;-69
2022/08/22 22:30:49;;;;;;;;;1.00;1.00;;;;;24.69;50.97;100955.88;5078514;28;45692;-69
2022/08/22 22:33:17;;;;;;;;;1.00;1.00;;;;;24.75;51.56;100962.72;5057386;28;45520;-71
2022/08/22 22:35:44;;;;;;;;;2.00;1.00;;;;;24.73;51.60;100967.31;5079832;28;45449;-72
2022/08/22 22:38:11;;;;;;;;;0.00;0.00;;;;;24.68;51.21;100974.72;5060424;28;45436;-68
2022/08/22 22:40:41;;;;;;;;;1.00;1.00;;;;;24.66;51.53;100976.63;5056598;28;46119;-69
2022/08/22 22:43:11;;;;;;;;;0.00;0.00;;;;;24.55;51.62;100963.78;5058427;28;45602;-71
2022/08/22 22:45:40;;;;;;;;;0.75;0.50;;;;;24.50;52.41;100971.19;5062873;28;45347;-68
2022/08/22 22:48:10;;;;;;;;;1.00;1.00;;;;;24.51;52.02;100979.16;5055614;28;45511;-72
2022/08/22 22:50:39;;;;;;;;;1.00;1.00;;;;;24.57;51.75;100977.09;5050253;28;47634;-73
2022/08/22 22:53:07;;;;;;;;;1.00;1.00;;;;;24.57;51.79;100983.31;5057449;28;45924;-69
2022/08/22 22:55:33;;;;;;;;;2.00;2.00;;;;;24.57;52.11;100987.81;5054640;28;45367;-75
2022/08/22 22:58:05;;;;;;;;;2.00;2.00;;;;;24.52;51.78;100980.88;5057248;28;45480;-71
2022/08/22 23:00:34;;;;;;;;;3.00;1.00;;;;;24.56;51.97;100989.63;5036808;28;46106;-68
2022/08/22 23:03:01;;;;;;;;;1.00;1.00;;;;;24.49;51.89;100986.41;5054532;28;45711;-68
2022/08/22 23:05:31;;;;;;;;;1.00;1.00;;;;;24.44;52.81;100988.41;5069287;28;45751;-71
2022/08/22 23:07:58;;;;;;;;;0.25;0.25;;;;;24.39;52.83;100978.88;5056229;28;45423;-71
2022/08/22 23:10:26;;;;;;;;;0.00;0.00;;;;;24.42;52.76;100982.28;5066243;28;46334;-70
2022/08/22 23:12:53;;;;;;;;;0.00;0.00;;;;;24.30;52.52;100972.22;5055058;28;45397;-69
2022/08/22 23:15:20;;;;;;;;;0.00;0.00;;;;;24.34;52.66;100989.81;5037122;28;45387;-69
2022/08/22 23:17:45;;;;;;;;;1.00;1.00;;;;;24.37;52.63;100987.00;5058000;28;45549;-68
2022/08/22 23:20:11;;;;;;;;;1.00;1.00;;;;;24.34;52.65;100988.03;5066589;28;46003;-67
2022/08/22 23:22:39;;;;;;;;;2.00;1.00;;;;;24.26;53.20;100994.72;5070607;28;45840;-69
2022/08/22 23:25:04;;;;;;;;;1.00;1.00;;;;;24.13;53.06;100983.75;5063670;28;45560;-67
2022/08/22 23:27:34;;;;;;;;;0.00;0.00;;;;;24.05;53.14;100964.56;5060738;28;45707;-72
2022/08/22 23:30:07;;;;;;;;;0.25;0.25;;;;;24.12;53.21;100995.41;5054525;28;46731;-69
2022/08/22 23:32:35;;;;;;;;;3.00;1.00;;;;;23.82;54.01;100963.03;5046832;28;45457;-74
2022/08/22 23:35:01;;;;;;;;;2.25;0.75;;;;;23.99;53.97;100995.16;5037280;28;45473;-68
2022/08/22 23:37:27;;;;;;;;;0.00;0.00;;;;;23.98;53.87;100990.75;5066673;28;45723;-70
2022/08/22 23:39:53;;;;;;;;;0.75;0.75;;;;;23.95;53.72;100979.34;5069149;28;45616;-70
2022/08/22 23:42:18;;;;;;;;;0.00;0.00;;;;;23.94;53.64;100978.47;5057956;28;45789;-68
2022/08/22 23:44:45;;;;;;;;;0.00;0.00;;;;;23.92;53.88;100970.53;5058159;28;45503;-68
2022/08/22 23:47:12;;;;;;;;;2.00;1.00;;;;;23.95;53.84;100982.88;5057715;28;45875;-68
2022/08/22 23:49:39;;;;;;;;;0.00;0.00;;;;;23.98;53.77;100987.22;5058132;28;45645;-66
2022/08/22 23:52:05;;;;;;;;;1.00;1.00;;;;;23.97;53.36;100982.81;5055043;28;45414;-68
2022/08/22 23:54:31;;;;;;;;;0.50;0.50;;;;;24.00;53.29;100980.84;5065884;28;45484;-68
2022/08/22 23:57:00;;;;;;;;;0.25;0.25;;;;;24.00;53.36;100991.53;5057436;28;45367;-70
2022/08/22 23:59:29;;;;;;;;;1.00;0.25;;;;;23.99;53.64;100994.28;5057444;28;45536;-67
